Time;durP1;ratioP1;P1;durP2;ratioP2;P2;SDS_P1;SDS_P2;PMS_P1;PMS_P2;Temp;Humidity;BMP_temperature;BMP_pressure;BME280_temperature;BME280_humidity;BME280_pressure;Samples;Min_cycle;Max_cycle;Signal;HPM_P1;HPM_P2
2022/08/11 00:01:29;;;;;;;3.10;2.10;;;;;;;;;;5089415;28;20107;-72
2022/08/11 00:04:16;;;;;;;5.32;2.47;;;;;;;;;;5087733;28;20024;-70
2022/08/11 00:07:03;;;;;;;3.22;1.73;;;;;;;;;;5081300;28;20024;-71
2022/08/11 00:09:50;;;;;;;3.92;2.13;;;;;;;;;;5081959;28;20020;-71
2022/08/11 00:12:35;;;;;;;4.32;2.10;;;;;;;;;;5087970;28;20478;-61
2022/08/11 00:15:22;;;;;;;3.90;2.13;;;;;;;;;;5080398;28;20032;-68
2022/08/11 00:18:08;;;;;;;2.85;1.80;;;;;;;;;;5090907;28;20063;-68
2022/08/11 00:20:56;;;;;;;3.03;1.92;;;;;;;;;;5089303;28;20031;-68
2022/08/11 00:23:59;;;;;;;4.18;1.90;;;;;;;;;;5085874;28;20437;-68
2022/08/11 00:26:48;;;;;;;4.47;2.08;;;;;;;;;;5092550;28;20463;-67
2022/08/11 00:29:34;;;;;;;6.38;2.22;;;;;;;;;;5086105;28;20475;-70
2022/08/11 00:32:20;;;;;;;2.88;2.35;;;;;;;;;;5089745;28;20523;-65
2022/08/11 00:35:08;;;;;;;4.10;2.00;;;;;;;;;;5085028;28;20111;-66
2022/08/11 00:37:54;;;;;;;4.75;2.10;;;;;;;;;;5085313;28;20383;-63
2022/08/11 00:40:42;;;;;;;3.10;2.17;;;;;;;;;;5089178;28;20390;-63
2022/08/11 00:43:33;;;;;;;2.47;1.73;;;;;;;;;;5090073;28;20110;-61
2022/08/11 00:46:33;;;;;;;6.25;2.70;;;;;;;;;;5090017;28;20107;-61
2022/08/11 00:49:31;;;;;;;3.45;1.83;;;;;;;;;;5079060;28;20078;-63
2022/08/11 00:52:20;;;;;;;4.45;2.13;;;;;;;;;;5085699;28;20055;-71
2022/08/11 00:55:09;;;;;;;5.75;2.10;;;;;;;;;;5084597;28;20056;-71
2022/08/11 00:58:14;;;;;;;2.13;1.77;;;;;;;;;;5083213;28;20522;-70
2022/08/11 01:01:22;;;;;;;3.78;2.03;;;;;;;;;;5060702;28;20059;-70
2022/08/11 01:04:37;;;;;;;2.58;1.90;;;;;;;;;;5089270;28;20494;-70
2022/08/11 01:07:32;;;;;;;6.70;2.42;;;;;;;;;;5029615;28;20387;-70
2022/08/11 01:10:18;;;;;;;4.78;2.00;;;;;;;;;;5088128;28;20020;-63
2022/08/11 01:13:32;;;;;;;2.78;2.00;;;;;;;;;;5062558;28;20383;-62
2022/08/11 01:16:43;;;;;;;3.33;2.13;;;;;;;;;;5087749;28;20028;-61
2022/08/11 01:19:47;;;;;;;4.35;2.30;;;;;;;;;;5073567;28;20051;-60
2022/08/11 01:22:45;;;;;;;6.03;2.53;;;;;;;;;;5087484;28;20035;-60
2022/08/11 01:25:49;;;;;;;4.13;2.28;;;;;;;;;;5083669;28;20063;-70
2022/08/11 01:28:47;;;;;;;3.65;2.00;;;;;;;;;;5062551;28;20031;-64
2022/08/11 01:31:48;;;;;;;6.43;2.33;;;;;;;;;;5082112;28;20591;-64
2022/08/11 01:34:52;;;;;;;4.43;2.45;;;;;;;;;;5079605;28;20041;-65
2022/08/11 01:37:47;;;;;;;3.38;2.35;;;;;;;;;;5085739;28;20107;-65
2022/08/11 01:40:52;;;;;;;5.85;1.98;;;;;;;;;;5081846;28;20032;-64
2022/08/11 01:47:49;;;;;;;3.65;1.85;;;;;;;;;;5080629;28;20028;-59
2022/08/11 01:50:17;;;;;;;3.95;2.20;;;;;;;;;;5086481;28;20032;-59
2022/08/11 01:53:06;;;;;;;4.80;1.75;;;;;;;;;;5089595;28;20463;-59
2022/08/11 01:55:59;;;;;;;3.95;2.53;;;;;;;;;;5086340;28;20024;-58
2022/08/11 01:59:03;;;;;;;3.72;2.10;;;;;;;;;;5096405;28;20035;-59
2022/08/11 02:02:07;;;;;;;4.75;2.00;;;;;;;;;;5090069;28;20032;-70
2022/08/11 02:05:05;;;;;;;3.10;2.03;;;;;;;;;;5088950;28;20024;-65
2022/08/11 02:08:10;;;;;;;2.17;1.85;;;;;;;;;;5087868;28;20024;-65
2022/08/11 02:14:33;;;;;;;3.85;2.08;;;;;;;;;;5080297;28;20036;-65
2022/08/11 02:17:34;;;;;;;5.00;2.42;;;;;;;;;;5076162;28;20437;-65
2022/08/11 02:26:25;;;;;;;3.63;1.77;;;;;;;;;;5090736;28;20028;-57
2022/08/11 02:29:10;;;;;;;5.85;2.33;;;;;;;;;;5085576;28;20024;-58
2022/08/11 02:35:15;;;;;;;2.85;2.00;;;;;;;;;;5088539;28;20028;-57
2022/08/11 02:38:20;;;;;;;4.60;2.35;;;;;;;;;;5084287;28;20027;-69
2022/08/11 02:44:20;;;;;;;2.83;1.65;;;;;;;;;;5081639;28;20032;-69
2022/08/11 02:47:13;;;;;;;3.05;1.90;;;;;;;;;;5089265;28;20039;-68
2022/08/11 02:50:07;;;;;;;3.53;1.98;;;;;;;;;;5091647;28;20033;-67
2022/08/11 02:52:53;;;;;;;2.42;1.90;;;;;;;;;;5082900;28;20711;-68
2022/08/11 02:55:42;;;;;;;3.22;2.03;;;;;;;;;;5084577;28;20040;-68
2022/08/11 02:58:42;;;;;;;3.83;2.30;;;;;;;;;;5083680;28;20479;-73
2022/08/11 03:01:34;;;;;;;4.13;2.13;;;;;;;;;;5085587;28;20028;-61
2022/08/11 03:04:24;;;;;;;5.25;2.17;;;;;;;;;;5090020;28;20122;-61
2022/08/11 03:07:22;;;;;;;4.28;2.00;;;;;;;;;;5089121;28;20074;-62
2022/08/11 03:10:14;;;;;;;3.00;2.20;;;;;;;;;;5088496;28;20040;-60
2022/08/11 03:16:45;;;;;;;4.10;2.17;;;;;;;;;;5059821;28;20060;-61
2022/08/11 03:19:49;;;;;;;3.40;2.25;;;;;;;;;;5083188;28;20035;-64
2022/08/11 03:22:55;;;;;;;4.30;2.08;;;;;;;;;;5071392;28;20044;-63
2022/08/11 03:25:48;;;;;;;3.58;2.25;;;;;;;;;;5083652;28;20540;-64
2022/08/11 03:29:00;;;;;;;5.15;2.30;;;;;;;;;;5086358;28;20375;-63
2022/08/11 03:31:55;;;;;;;4.45;2.30;;;;;;;;;;5085124;28;20036;-63
2022/08/11 03:34:44;;;;;;;4.95;2.50;;;;;;;;;;5081820;28;20036;-62
2022/08/11 03:37:49;;;;;;;4.45;2.30;;;;;;;;;;5101195;28;20040;-70
2022/08/11 03:43:56;;;;;;;6.97;2.80;;;;;;;;;;5081208;28;20037;-70
2022/08/11 03:47:00;;;;;;;5.38;2.90;;;;;;;;;;5075146;28;20035;-70
2022/08/11 03:49:55;;;;;;;4.85;2.20;;;;;;;;;;5086960;28;20036;-70
2022/08/11 03:52:59;;;;;;;5.03;2.60;;;;;;;;;;5078711;28;20033;-69
2022/08/11 03:56:11;;;;;;;5.40;2.58;;;;;;;;;;5081483;28;20044;-62
2022/08/11 03:58:59;;;;;;;4.82;2.53;;;;;;;;;;5078501;28;20513;-63
2022/08/11 04:02:03;;;;;;;5.43;2.40;;;;;;;;;;5080341;28;20034;-64
2022/08/11 04:04:53;;;;;;;4.03;2.42;;;;;;;;;;5080030;28;20119;-61
2022/08/11 04:07:39;;;;;;;;;;;;;;;;;;5079984;28;20040;-63
2022/08/11 04:10:30;;;;;;;3.03;2.28;;;;;;;;;;5088579;28;19911;-71
2022/08/11 04:13:15;;;;;;;8.52;2.67;;;;;;;;;;5079733;28;20036;-70
2022/08/11 04:16:20;;;;;;;4.25;2.40;;;;;;;;;;5076863;28;20036;-70
2022/08/11 04:19:24;;;;;;;3.17;2.10;;;;;;;;;;5084480;28;20040;-69
2022/08/11 04:22:36;;;;;;;5.82;2.55;;;;;;;;;;5085282;28;20051;-70
2022/08/11 04:25:35;;;;;;;5.25;2.80;;;;;;;;;;5070630;28;20382;-71
2022/08/11 04:28:21;;;;;;;4.72;2.55;;;;;;;;;;5089311;28;20028;-67
2022/08/11 04:31:25;;;;;;;3.78;2.70;;;;;;;;;;5080801;28;20040;-68
2022/08/11 04:34:23;;;;;;;5.82;2.63;;;;;;;;;;5076137;28;20028;-67
2022/08/11 04:40:35;;;;;;;4.90;2.47;;;;;;;;;;5087407;28;20526;-69
2022/08/11 04:43:23;;;;;;;4.38;2.33;;;;;;;;;;5088059;28;20527;-67
2022/08/11 04:46:36;;;;;;;4.38;2.88;;;;;;;;;;5082026;28;20021;-69
2022/08/11 05:02:34;;;;;;;5.88;3.10;;;;;;;;;;5090300;28;20043;-60
2022/08/11 05:05:32;;;;;;;4.65;2.88;;;;;;;;;;5083688;28;20031;-67
2022/08/11 05:08:36;;;;;;;7.38;2.65;;;;;;;;;;5088327;28;20051;-62
2022/08/11 05:11:34;;;;;;;5.68;3.15;;;;;;;;;;5073163;28;20158;-62
2022/08/11 05:36:28;;;;;;;4.38;2.85;;;;;;;;;;5090990;28;20083;-67
2022/08/11 05:57:55;;;;;;;5.18;3.03;;;;;;;;;;5061976;28;20511;-61
2022/08/11 06:00:45;;;;;;;6.82;3.03;;;;;;;;;;5080162;28;20524;-65
2022/08/11 06:03:31;;;;;;;;;;;;;;;;;;5085564;28;20077;-59
2022/08/11 06:06:16;;;;;;;6.05;3.05;;;;;;;;;;5086631;28;19921;-66
2022/08/11 06:09:02;;;;;;;5.68;2.92;;;;;;;;;;5090012;28;20028;-69
2022/08/11 06:11:48;;;;;;;5.18;2.50;;;;;;;;;;5081887;28;20474;-66
2022/08/11 06:14:41;;;;;;;8.85;2.20;;;;;;;;;;5062964;28;20032;-68
2022/08/11 06:17:29;;;;;;;3.63;2.45;;;;;;;;;;5087388;28;20112;-66
2022/08/11 06:20:18;;;;;;;4.47;2.60;;;;;;;;;;5091377;28;20060;-71
2022/08/11 06:23:05;;;;;;;3.25;2.20;;;;;;;;;;5081069;28;20031;-68
2022/08/11 06:25:52;;;;;;;5.35;2.38;;;;;;;;;;5083750;28;20480;-67
2022/08/11 06:28:39;;;;;;;9.10;2.63;;;;;;;;;;5085982;28;20071;-69
2022/08/11 06:31:25;;;;;;;4.40;2.38;;;;;;;;;;5085579;28;20028;-67
2022/08/11 06:34:14;;;;;;;8.05;3.20;;;;;;;;;;5089233;28;20024;-68
2022/08/11 06:37:12;;;;;;;5.78;2.60;;;;;;;;;;5083488;28;20035;-69
2022/08/11 06:40:07;;;;;;;5.30;3.05;;;;;;;;;;5084225;28;20158;-65
2022/08/11 06:43:00;;;;;;;8.18;3.05;;;;;;;;;;5063149;28;20102;-67
2022/08/11 06:45:52;;;;;;;7.22;2.95;;;;;;;;;;5080152;28;20021;-65
2022/08/11 06:48:38;;;;;;;6.22;2.83;;;;;;;;;;5074692;28;20400;-63
2022/08/11 06:51:26;;;;;;;6.50;3.45;;;;;;;;;;5083762;28;20031;-63
2022/08/11 06:54:31;;;;;;;10.43;2.85;;;;;;;;;;5077440;28;20032;-63
2022/08/11 07:00:28;;;;;;;5.40;2.95;;;;;;;;;;5082444;28;20039;-66
2022/08/11 07:03:18;;;;;;;5.82;3.40;;;;;;;;;;5092153;28;20024;-67
2022/08/11 07:06:24;;;;;;;5.10;2.90;;;;;;;;;;5087523;28;20024;-64
2022/08/11 07:15:40;;;;;;;9.98;3.35;;;;;;;;;;5078114;28;20066;-71
2022/08/11 07:31:07;;;;;;;8.70;3.20;;;;;;;;;;5083662;28;20028;-74
2022/08/11 07:33:58;;;;;;;6.93;2.63;;;;;;;;;;5089731;28;20090;-68
2022/08/11 07:37:06;;;;;;;6.40;2.83;;;;;;;;;;5080651;28;20029;-67
2022/08/11 07:39:52;;;;;;;5.22;2.65;;;;;;;;;;5081938;28;20382;-67
2022/08/11 07:42:40;;;;;;;6.68;2.80;;;;;;;;;;5084294;28;20383;-67
2022/08/11 07:54:42;;;;;;;4.80;2.75;;;;;;;;;;5092199;28;20031;-70
2022/08/11 08:19:13;;;;;;;4.78;2.60;;;;;;;;;;5064322;28;20024;-70
2022/08/11 08:21:59;;;;;;;7.18;2.97;;;;;;;;;;5065484;28;20028;-68
2022/08/11 08:24:45;;;;;;;4.60;2.83;;;;;;;;;;5050229;28;20068;-70
2022/08/11 08:27:31;;;;;;;6.15;2.40;;;;;;;;;;5068733;28;20107;-71
2022/08/11 08:33:26;;;;;;;2.97;2.28;;;;;;;;;;5067617;28;20033;-69
2022/08/11 08:36:13;;;;;;;4.25;2.80;;;;;;;;;;5070888;28;20046;-72
2022/08/11 08:38:59;;;;;;;5.32;2.20;;;;;;;;;;5070080;28;20395;-68
2022/08/11 08:41:45;;;;;;;4.25;2.38;;;;;;;;;;5064386;28;20407;-71
2022/08/11 08:44:33;;;;;;;8.48;2.60;;;;;;;;;;5075268;28;20024;-69
2022/08/11 08:47:19;;;;;;;6.63;2.60;;;;;;;;;;5066840;28;20109;-72
2022/08/11 08:50:06;;;;;;;3.75;1.90;;;;;;;;;;5070619;28;20030;-73
2022/08/11 08:52:54;;;;;;;4.25;2.15;;;;;;;;;;5068643;28;20055;-71
2022/08/11 08:55:41;;;;;;;3.97;2.25;;;;;;;;;;5038922;28;20050;-73
2022/08/11 08:58:28;;;;;;;5.20;1.88;;;;;;;;;;5060685;28;20399;-73
2022/08/11 09:01:15;;;;;;;3.60;2.15;;;;;;;;;;5074611;28;20086;-70
2022/08/11 09:04:02;;;;;;;5.28;2.13;;;;;;;;;;5068415;28;20098;-74
2022/08/11 09:06:49;;;;;;;5.33;2.57;;;;;;;;;;5060888;28;20495;-73
2022/08/11 09:09:35;;;;;;;3.95;2.10;;;;;;;;;;5062336;28;20012;-75
2022/08/11 09:12:21;;;;;;;3.45;2.03;;;;;;;;;;5069996;28;20483;-74
2022/08/11 09:15:08;;;;;;;3.63;2.10;;;;;;;;;;5068534;28;20032;-72
2022/08/11 09:18:02;;;;;;;5.93;2.13;;;;;;;;;;5065984;28;20025;-73
2022/08/11 09:20:48;;;;;;;3.58;2.30;;;;;;;;;;5052690;28;20032;-72
2022/08/11 09:26:58;;;;;;;2.50;2.05;;;;;;;;;;5069903;28;20039;-72
2022/08/11 09:29:44;;;;;;;3.88;1.90;;;;;;;;;;5069706;28;20035;-69
2022/08/11 09:32:30;;;;;;;4.43;2.00;;;;;;;;;;5071720;28;20024;-71
2022/08/11 09:35:16;;;;;;;4.60;2.10;;;;;;;;;;5068071;28;20028;-72
2022/08/11 09:41:08;;;;;;;6.10;2.20;;;;;;;;;;5068979;28;20025;-77
2022/08/11 09:46:59;;;;;;;5.30;2.50;;;;;;;;;;5065179;28;20044;-78
2022/08/11 09:49:45;;;;;;;6.07;2.40;;;;;;;;;;5064890;28;20032;-76
2022/08/11 09:52:33;;;;;;;3.75;2.03;;;;;;;;;;5063836;28;20044;-76
2022/08/11 09:55:19;;;;;;;4.88;2.30;;;;;;;;;;5068221;28;20081;-76
2022/08/11 09:58:15;;;;;;;4.85;2.50;;;;;;;;;;5053360;28;20479;-77
2022/08/11 10:01:01;;;;;;;2.83;1.88;;;;;;;;;;5059042;28;20078;-73
2022/08/11 10:03:47;;;;;;;3.80;2.08;;;;;;;;;;5070821;28;20170;-69
2022/08/11 10:09:40;;;;;;;5.20;1.63;;;;;;;;;;5070191;28;20036;-69
2022/08/11 10:12:39;;;;;;;6.15;2.17;;;;;;;;;;5067029;28;20078;-73
2022/08/11 10:15:34;;;;;;;2.28;1.80;;;;;;;;;;5068514;28;20407;-74
2022/08/11 10:18:41;;;;;;;3.72;2.03;;;;;;;;;;5067189;28;20032;-69
2022/08/11 10:21:27;;;;;;;2.42;1.90;;;;;;;;;;5065415;28;20059;-70
2022/08/11 10:27:17;;;;;;;3.00;2.00;;;;;;;;;;5065623;28;20032;-68
2022/08/11 10:36:13;;;;;;;2.17;1.83;;;;;;;;;;5069125;28;20413;-69
2022/08/11 10:38:59;;;;;;;3.80;1.63;;;;;;;;;;5054938;28;20028;-67
2022/08/11 10:44:51;;;;;;;3.50;1.92;;;;;;;;;;5103249;28;20489;-63
2022/08/11 10:47:38;;;;;;;4.20;2.03;;;;;;;;;;5107107;28;20039;-64
2022/08/11 10:59:41;;;;;;;2.88;1.75;;;;;;;;;;5107804;28;20095;-76
2022/08/11 11:02:27;;;;;;;5.43;2.05;;;;;;;;;;5111028;28;20019;-79
2022/08/11 11:05:15;;;;;;;6.10;2.10;;;;;;;;;;5117636;28;20047;-78
2022/08/11 11:08:51;;;;;;;3.63;1.95;;;;;;;;;;5111914;28;20106;-80
2022/08/11 11:11:15;;;;;;;3.65;1.58;;;;;;;;;;5113170;28;20055;-79
2022/08/11 11:20:12;;;;;;;3.03;1.67;;;;;;;;;;5108368;28;20426;-72
2022/08/11 11:23:03;;;;;;;4.88;1.75;;;;;;;;;;5103409;28;20028;-74
2022/08/11 11:26:05;;;;;;;6.22;2.03;;;;;;;;;;5106693;28;20516;-76
2022/08/11 11:29:09;;;;;;;3.58;2.28;;;;;;;;;;5100308;28;20035;-74
2022/08/11 11:32:05;;;;;;;3.63;2.15;;;;;;;;;;5128790;27;20663;-66
2022/08/11 11:34:50;;;;;;;4.40;1.98;;;;;;;;;;5097237;28;20027;-67
2022/08/11 11:37:37;;;;;;;6.18;2.08;;;;;;;;;;5128410;27;20377;-67
2022/08/11 11:40:23;;;;;;;4.25;1.88;;;;;;;;;;5110689;28;20106;-66
2022/08/11 11:43:09;;;;;;;4.70;1.88;;;;;;;;;;5113066;27;20035;-68
2022/08/11 11:45:54;;;;;;;3.03;1.98;;;;;;;;;;5111173;27;20335;-66
2022/08/11 11:48:40;;;;;;;4.75;1.80;;;;;;;;;;5109658;28;20032;-67
2022/08/11 11:51:26;;;;;;;4.20;1.77;;;;;;;;;;5104598;28;20363;-69
2022/08/11 11:54:13;;;;;;;3.47;1.77;;;;;;;;;;5094340;28;20386;-70
2022/08/11 12:01:14;;;;;;;5.10;2.08;;;;;;;;;;5099098;28;20035;-69
2022/08/11 12:03:11;;;;;;;2.97;1.90;;;;;;;;;;5109555;28;20039;-71
2022/08/11 12:05:57;;;;;;;2.45;1.70;;;;;;;;;;5112390;28;20046;-69
2022/08/11 12:08:43;;;;;;;2.75;1.80;;;;;;;;;;5097182;28;20027;-69
2022/08/11 12:14:37;;;;;;;3.50;2.00;;;;;;;;;;5095211;28;20032;-64
2022/08/11 12:17:23;;;;;;;2.50;1.60;;;;;;;;;;5099930;28;20480;-68
2022/08/11 12:20:09;;;;;;;4.60;1.55;;;;;;;;;;5110521;28;20036;-67
2022/08/11 12:29:05;;;;;;;4.57;1.75;;;;;;;;;;5121111;27;20019;-67
2022/08/11 12:31:50;;;;;;;3.47;1.60;;;;;;;;;;5116042;27;20067;-60
2022/08/11 12:34:36;;;;;;;4.20;2.03;;;;;;;;;;5113824;28;20031;-61
2022/08/11 12:37:45;;;;;;;4.35;1.90;;;;;;;;;;5094872;28;20028;-61
2022/08/11 12:46:42;;;;;;;4.57;1.90;;;;;;;;;;5110468;27;20080;-64
2022/08/11 12:52:49;;;;;;;3.10;1.85;;;;;;;;;;5092414;27;20035;-68
2022/08/11 12:58:39;;;;;;;5.30;2.08;;;;;;;;;;5107881;28;20019;-71
2022/08/11 13:07:34;;;;;;;3.08;1.85;;;;;;;;;;5109587;28;20028;-66
2022/08/11 13:12:46;;;;;;;2.60;1.65;;;;;;;;;;5109257;28;20027;-66
2022/08/11 13:13:25;;;;;;;2.33;1.73;;;;;;;;;;5106197;27;20374;-66
2022/08/11 13:16:13;;;;;;;3.80;1.90;;;;;;;;;;5114159;27;20027;-65
2022/08/11 13:18:59;;;;;;;3.17;1.85;;;;;;;;;;5119831;27;20027;-69
2022/08/11 13:21:45;;;;;;;2.88;1.58;;;;;;;;;;5115523;27;20485;-65
2022/08/11 13:24:33;;;;;;;2.30;1.60;;;;;;;;;;5116404;27;20043;-76
2022/08/11 13:27:19;;;;;;;7.00;2.15;;;;;;;;;;5113344;27;20039;-77
2022/08/11 13:33:10;;;;;;;3.10;1.67;;;;;;;;;;5111943;27;20031;-76
2022/08/11 13:35:55;;;;;;;3.53;1.83;;;;;;;;;;5115051;27;20098;-76
2022/08/11 13:38:42;;;;;;;6.32;1.90;;;;;;;;;;5119829;27;20054;-75
2022/08/11 13:41:38;;;;;;;3.60;1.70;;;;;;;;;;5110898;28;20019;-76
2022/08/11 13:44:26;;;;;;;2.63;1.80;;;;;;;;;;5106802;27;20038;-68
2022/08/11 13:47:12;;;;;;;4.05;1.60;;;;;;;;;;5110183;28;20431;-69
2022/08/11 13:49:58;;;;;;;5.47;1.92;;;;;;;;;;5100704;28;20035;-67
2022/08/11 13:52:44;;;;;;;2.88;1.60;;;;;;;;;;5104233;28;20103;-66
2022/08/11 13:55:30;;;;;;;7.22;2.17;;;;;;;;;;5102453;28;20036;-68
2022/08/11 13:58:16;;;;;;;2.85;1.77;;;;;;;;;;5101344;28;20031;-67
2022/08/11 14:01:05;;;;;;;2.15;1.70;;;;;;;;;;5110751;28;20016;-68
2022/08/11 14:03:51;;;;;;;6.03;1.80;;;;;;;;;;5109290;27;20035;-68
2022/08/11 14:06:38;;;;;;;2.35;1.80;;;;;;;;;;5091638;28;20031;-69
2022/08/11 14:09:25;;;;;;;2.40;1.70;;;;;;;;;;5104324;28;20105;-66
2022/08/11 14:15:21;;;;;;;2.72;1.88;;;;;;;;;;5102934;28;20036;-66
2022/08/11 14:18:10;;;;;;;3.05;1.95;;;;;;;;;;5106521;28;20139;-73
2022/08/11 14:24:03;;;;;;;5.28;1.83;;;;;;;;;;5112781;27;20536;-66
2022/08/11 14:26:50;;;;;;;5.45;1.98;;;;;;;;;;5108844;28;20449;-65
2022/08/11 14:29:37;;;;;;;2.25;1.67;;;;;;;;;;5108430;28;20084;-69
2022/08/11 14:32:24;;;;;;;3.13;1.60;;;;;;;;;;5108777;28;20035;-70
2022/08/11 14:35:10;;;;;;;1.80;1.48;;;;;;;;;;5113157;28;20476;-70
2022/08/11 14:37:57;;;;;;;4.25;2.00;;;;;;;;;;5108837;28;20111;-64
2022/08/11 14:47:04;;;;;;;7.97;2.22;;;;;;;;;;5105623;28;20035;-64
2022/08/11 14:49:53;;;;;;;1.98;1.50;;;;;;;;;;5107544;28;20101;-63
2022/08/11 14:52:43;;;;;;;5.90;2.15;;;;;;;;;;5106853;28;20031;-62
2022/08/11 14:58:35;;;;;;;6.50;2.00;;;;;;;;;;5105694;28;20035;-70
2022/08/11 15:04:25;;;;;;;4.72;2.03;;;;;;;;;;5106885;28;20044;-69
2022/08/11 15:07:11;;;;;;;3.25;1.40;;;;;;;;;;5111310;28;20031;-72
2022/08/11 15:09:57;;;;;;;3.75;1.67;;;;;;;;;;5099277;28;20043;-71
2022/08/11 15:12:44;;;;;;;3.55;1.85;;;;;;;;;;5104977;28;20052;-71
2022/08/11 15:18:36;;;;;;;4.75;1.73;;;;;;;;;;5099169;28;20034;-65
2022/08/11 15:24:25;;;;;;;7.75;2.05;;;;;;;;;;5111502;27;20040;-75
2022/08/11 15:46:10;;;;;;;5.30;1.70;;;;;;;;;;5108868;28;20427;-68
2022/08/11 15:48:56;;;;;;;;;;;;;;;;;;5110260;28;20032;-69
2022/08/11 15:51:44;;;;;;;4.95;2.05;;;;;;;;;;5111283;28;19912;-60
2022/08/11 15:54:31;;;;;;;3.63;1.67;;;;;;;;;;5116043;27;20482;-58
2022/08/11 16:06:31;;;;;;;2.78;1.67;;;;;;;;;;5110504;28;20032;-58
2022/08/11 16:09:36;;;;;;;3.97;1.85;;;;;;;;;;5122104;27;20038;-62
2022/08/11 16:12:23;;;;;;;5.88;2.30;;;;;;;;;;5108479;28;20411;-62
2022/08/11 16:18:15;;;;;;;5.68;2.67;;;;;;;;;;5109682;28;20454;-59
2022/08/11 16:21:00;;;;;;;5.07;3.20;;;;;;;;;;5103343;28;20015;-64
2022/08/11 16:23:47;;;;;;;6.97;2.72;;;;;;;;;;5103740;28;20038;-60
2022/08/11 16:26:35;;;;;;;3.85;2.40;;;;;;;;;;5091136;28;20053;-66
2022/08/11 16:29:22;;;;;;;5.90;2.70;;;;;;;;;;5102612;28;20329;-63
2022/08/11 16:32:15;;;;;;;5.22;2.35;;;;;;;;;;5099683;28;20390;-64
2022/08/11 16:46:57;;;;;;;4.45;2.67;;;;;;;;;;5109613;27;19961;-67
2022/08/11 16:47:26;;;;;;;25.25;14.90;;;;;;;;;;5101126;27;20380;-66
2022/08/11 16:50:13;;;;;;;57.58;47.92;;;;;;;;;;5112556;27;20382;-64
2022/08/11 16:52:58;;;;;;;50.67;31.77;;;;;;;;;;5107427;27;20043;-73
2022/08/11 16:55:45;;;;;;;31.48;18.27;;;;;;;;;;5108967;27;20371;-70
2022/08/11 17:01:36;;;;;;;34.15;21.83;;;;;;;;;;5105758;27;20023;-61
2022/08/11 17:14:00;;;;;;;31.60;23.92;;;;;;;;;;5106431;27;20324;-62
2022/08/11 17:16:49;;;;;;;15.55;11.27;;;;;;;;;;5112002;27;20035;-65
2022/08/11 17:19:34;;;;;;;;;;;;;;;;;;5112185;27;20598;-63
2022/08/11 17:25:27;;;;;;;10.98;7.50;;;;;;;;;;5107761;28;20115;-62
2022/08/11 17:28:14;;;;;;;12.70;8.00;;;;;;;;;;5121336;27;20069;-63
2022/08/11 17:37:13;;;;;;;7.40;4.32;;;;;;;;;;5120584;27;20431;-64
2022/08/11 17:40:03;;;;;;;6.88;4.70;;;;;;;;;;5120438;27;20027;-68
2022/08/11 17:48:55;;;;;;;6.88;3.35;;;;;;;;;;5106656;27;20040;-70
2022/08/11 18:01:11;;;;;;;;;;;;;;;;;;5076828;28;20482;-64
2022/08/11 18:03:57;;;;;;;5.45;3.38;;;;;;;;;;5102557;28;19964;-63
2022/08/11 18:06:43;;;;;;;5.22;2.40;;;;;;;;;;5111191;28;20091;-66
